createdAt,value
2019-05-23T00:04:11.035Z,14.91
2019-05-23T00:09:18.739Z,15.51
2019-05-23T00:14:26.477Z,14.28
2019-05-23T00:19:34.348Z,14.74
2019-05-23T00:24:41.975Z,13.89
2019-05-23T00:29:49.713Z,14.73
2019-05-23T00:34:57.524Z,14.55
2019-05-23T00:40:05.233Z,14.46
2019-05-23T00:45:13.061Z,15.89
2019-05-23T00:50:21.826Z,16.88
2019-05-23T00:55:29.425Z,16.58
2019-05-23T01:00:37.173Z,16.90
2019-05-23T01:05:44.833Z,17.20
2019-05-23T01:10:52.526Z,17.72
2019-05-23T01:16:00.153Z,17.67
2019-05-23T01:21:08.067Z,16.87
2019-05-23T01:26:16.963Z,17.08
2019-05-23T01:31:24.781Z,17.99
2019-05-23T01:36:32.422Z,16.36
2019-05-23T01:41:40.081Z,17.42
2019-05-23T01:46:47.792Z,16.60
2019-05-23T01:51:55.710Z,16.78
2019-05-23T01:57:03.514Z,15.78
2019-05-23T02:02:11.215Z,15.62
2019-05-23T02:07:18.913Z,15.23
2019-05-23T02:12:26.788Z,16.04
2019-05-23T02:17:34.549Z,15.55
2019-05-23T02:22:42.235Z,15.86
2019-05-23T02:27:49.984Z,14.25
2019-05-23T02:32:57.914Z,15.42
2019-05-23T02:38:05.707Z,13.21
2019-05-23T02:43:13.659Z,13.83
2019-05-23T02:48:21.485Z,14.26
2019-05-23T02:53:29.283Z,13.93
2019-05-23T02:58:37.125Z,13.16
2019-05-23T03:03:44.976Z,13.13
2019-05-23T03:08:52.583Z,13.15
2019-05-23T03:14:00.269Z,13.53
2019-05-23T03:19:08.179Z,12.92
2019-05-23T03:24:16.070Z,13.54
2019-05-23T03:29:23.726Z,13.47
2019-05-23T03:34:31.468Z,13.48
2019-05-23T03:39:39.326Z,12.86
2019-05-23T03:44:46.958Z,12.73
2019-05-23T03:49:54.649Z,11.99
2019-05-23T03:55:02.329Z,11.73
2019-05-23T04:00:09.994Z,11.59
2019-05-23T04:05:18.274Z,11.42
2019-05-23T04:10:26.114Z,11.32
2019-05-23T04:15:33.874Z,10.54
2019-05-23T04:20:41.543Z,10.04
2019-05-23T04:25:49.237Z,9.67
2019-05-23T04:30:56.905Z,9.03
2019-05-23T04:36:04.831Z,9.15
2019-05-23T04:41:12.552Z,9.07
2019-05-23T04:46:20.504Z,9.03
2019-05-23T04:51:28.232Z,8.98
2019-05-23T04:56:36.098Z,9.50
2019-05-23T05:01:43.961Z,8.07
2019-05-23T05:06:51.590Z,8.35
2019-05-23T05:11:59.370Z,8.13
2019-05-23T05:17:07.190Z,8.41
2019-05-23T05:22:15.015Z,8.34
2019-05-23T05:27:22.830Z,8.42
2019-05-23T05:32:44.068Z,7.86
2019-05-23T05:37:38.247Z,8.25
2019-05-23T05:42:45.874Z,7.80
2019-05-23T05:47:53.679Z,8.52
2019-05-23T05:53:01.327Z,8.42
2019-05-23T05:58:08.963Z,8.44
2019-05-23T06:03:16.570Z,8.49
2019-05-23T06:08:24.371Z,8.53
2019-05-23T06:13:32.053Z,8.30
2019-05-23T06:18:39.713Z,8.04
2019-05-23T06:23:47.553Z,8.16
2019-05-23T06:28:55.453Z,8.58
2019-05-23T06:34:03.124Z,7.91
2019-05-23T06:39:10.809Z,8.34
2019-05-23T06:44:18.549Z,8.23
2019-05-23T06:49:26.150Z,7.75
2019-05-23T06:54:33.790Z,7.79
2019-05-23T06:59:41.485Z,8.09
2019-05-23T07:04:49.439Z,7.51
2019-05-23T07:09:57.127Z,7.77
2019-05-23T07:15:05.689Z,6.32
2019-05-23T07:20:13.393Z,6.43
2019-05-23T07:25:22.122Z,6.02
2019-05-23T07:30:29.837Z,6.09
2019-05-23T07:35:37.929Z,6.22
2019-05-23T07:40:45.697Z,6.33
2019-05-23T07:45:53.698Z,6.36
2019-05-23T07:51:01.388Z,5.99
2019-05-23T07:56:09.091Z,5.49
2019-05-23T08:01:16.786Z,4.84
2019-05-23T08:06:24.617Z,4.94
2019-05-23T08:11:32.438Z,4.35
2019-05-23T08:16:40.251Z,3.93
2019-05-23T08:21:48.052Z,4.07
2019-05-23T08:26:55.939Z,4.13
2019-05-23T08:32:03.759Z,3.65
2019-05-23T08:37:11.556Z,3.23
2019-05-23T08:42:19.322Z,3.26
2019-05-23T08:47:27.241Z,2.89
2019-05-23T08:52:34.942Z,2.69
2019-05-23T08:57:42.845Z,3.03
2019-05-23T09:02:50.624Z,2.39
2019-05-23T09:07:58.502Z,2.77
2019-05-23T09:13:06.255Z,2.47
2019-05-23T09:18:14.230Z,2.15
2019-05-23T09:23:21.888Z,2.01
2019-05-23T09:28:29.525Z,1.56
2019-05-23T09:33:37.238Z,2.15
2019-05-23T09:38:44.919Z,2.16
2019-05-23T09:43:52.581Z,2.36
2019-05-23T09:49:00.441Z,2.02
2019-05-23T09:54:08.093Z,1.80
2019-05-23T09:59:15.847Z,1.88
2019-05-23T10:04:23.544Z,1.99
2019-05-23T10:09:31.174Z,1.82
2019-05-23T10:14:38.834Z,2.09
2019-05-23T10:19:46.612Z,2.41
2019-05-23T10:24:54.339Z,1.87
2019-05-23T10:30:02.201Z,1.67
2019-05-23T10:35:10.070Z,1.48
2019-05-23T10:40:17.951Z,1.51
2019-05-23T10:45:25.774Z,1.86
2019-05-23T10:50:44.153Z,1.65
2019-05-23T10:55:40.966Z,1.79
2019-05-23T11:00:48.809Z,1.89
2019-05-23T11:05:56.594Z,1.57
2019-05-23T11:11:04.413Z,1.76
2019-05-23T11:16:12.125Z,2.13
2019-05-23T11:21:19.985Z,2.12
2019-05-23T11:26:27.669Z,1.83
2019-05-23T11:31:35.566Z,1.67
2019-05-23T11:36:43.543Z,1.88
2019-05-23T11:41:50.447Z,1.96
2019-05-23T11:46:58.101Z,2.20
2019-05-23T11:52:06.110Z,2.02
2019-05-23T11:57:13.778Z,1.67
2019-05-23T12:02:21.586Z,2.02
2019-05-23T12:07:29.222Z,1.81
2019-05-23T12:12:36.993Z,1.92
2019-05-23T12:17:44.770Z,1.90
2019-05-23T12:22:52.586Z,1.89
2019-05-23T12:28:00.172Z,2.04
2019-05-23T12:33:07.957Z,2.39
2019-05-23T12:38:15.701Z,2.13
2019-05-23T12:43:23.459Z,2.05
2019-05-23T12:48:31.227Z,1.95
2019-05-23T12:53:38.992Z,2.00
2019-05-23T12:58:46.670Z,2.02
2019-05-23T13:03:54.417Z,2.02
2019-05-23T13:09:02.076Z,2.09
2019-05-23T13:14:09.751Z,1.85
2019-05-23T13:19:17.442Z,1.98
2019-05-23T13:24:25.205Z,1.81
2019-05-23T13:29:32.856Z,1.89
2019-05-23T13:34:41.435Z,1.88
2019-05-23T13:39:50.304Z,1.63
2019-05-23T13:44:56.377Z,2.03
2019-05-23T13:50:04.386Z,1.63
2019-05-23T13:55:12.086Z,1.87
2019-05-23T14:00:19.671Z,1.84
2019-05-23T14:05:27.468Z,1.94
2019-05-23T14:10:35.257Z,1.67
2019-05-23T14:15:43.059Z,1.60
2019-05-23T14:20:50.742Z,2.06
2019-05-23T14:25:58.491Z,2.00
2019-05-23T14:31:06.215Z,1.89
2019-05-23T14:36:14.011Z,1.87
2019-05-23T14:41:21.766Z,1.67
2019-05-23T14:46:29.535Z,1.97
2019-05-23T14:51:37.310Z,2.08
2019-05-23T14:56:45.034Z,2.15
2019-05-23T15:01:52.748Z,2.48
2019-05-23T15:07:00.507Z,2.16
2019-05-23T15:12:08.202Z,2.70
2019-05-23T15:17:15.970Z,2.17
2019-05-23T15:22:23.589Z,2.76
2019-05-23T15:27:33.254Z,2.68
2019-05-23T15:32:39.055Z,2.93
2019-05-23T15:37:46.794Z,2.68
2019-05-23T15:42:54.497Z,2.94
2019-05-23T15:48:02.134Z,3.24
2019-05-23T15:53:10.933Z,3.08
2019-05-23T15:58:22.112Z,3.03
2019-05-23T16:03:26.047Z,2.64
2019-05-23T16:08:34.132Z,3.12
2019-05-23T16:13:41.870Z,2.94
2019-05-23T16:18:49.690Z,3.74
2019-05-23T16:23:57.477Z,3.79
2019-05-23T16:29:05.245Z,3.43
2019-05-23T16:34:13.005Z,3.38
2019-05-23T16:39:20.720Z,3.77
2019-05-23T16:44:28.511Z,4.55
2019-05-23T16:49:36.273Z,3.83
2019-05-23T16:54:43.931Z,4.07
2019-05-23T16:59:51.730Z,3.73
2019-05-23T17:05:21.129Z,4.33
2019-05-23T17:10:28.813Z,4.03
2019-05-23T17:15:36.569Z,4.37
2019-05-23T17:20:44.363Z,4.06
2019-05-23T17:25:52.085Z,4.45
2019-05-23T17:30:59.894Z,4.41
2019-05-23T17:36:08.453Z,4.16
2019-05-23T17:41:16.390Z,3.98
2019-05-23T17:46:24.076Z,4.08
2019-05-23T17:51:32.087Z,4.16
2019-05-23T17:56:39.738Z,4.19
2019-05-23T18:01:47.932Z,3.96
2019-05-23T18:06:55.661Z,3.72
2019-05-23T18:12:03.878Z,3.40
2019-05-23T18:17:11.574Z,3.26
2019-05-23T18:22:19.337Z,3.46
2019-05-23T18:27:27.077Z,3.55
2019-05-23T18:32:34.779Z,9.37
2019-05-23T18:37:43.356Z,12.31
2019-05-23T18:42:51.093Z,12.83
2019-05-23T18:47:58.841Z,13.88
2019-05-23T18:53:07.438Z,13.58
2019-05-23T18:58:19.044Z,14.35
2019-05-23T19:03:22.595Z,14.46
2019-05-23T19:08:30.310Z,14.31
2019-05-23T19:13:38.108Z,14.19
2019-05-23T19:18:45.754Z,14.36
2019-05-23T19:23:53.478Z,14.63
2019-05-23T19:29:01.328Z,14.09
2019-05-23T19:34:09.018Z,13.85
2019-05-23T19:39:17.651Z,14.18
2019-05-23T19:44:25.394Z,14.00
2019-05-23T19:49:33.241Z,14.04
2019-05-23T19:54:41.867Z,14.06
2019-05-23T19:59:49.697Z,15.05
2019-05-23T20:04:57.773Z,14.66
2019-05-23T20:10:05.589Z,15.12
2019-05-23T20:15:13.362Z,15.52
2019-05-23T20:20:21.163Z,14.60
2019-05-23T20:25:28.851Z,14.91
2019-05-23T20:30:36.613Z,15.38
2019-05-23T20:35:44.445Z,16.00
2019-05-23T20:40:52.243Z,15.51
2019-05-23T20:46:00.096Z,15.52
2019-05-23T20:51:07.957Z,15.86
2019-05-23T20:56:15.823Z,15.79
2019-05-23T21:01:24.350Z,16.02
2019-05-23T21:06:32.163Z,16.69
2019-05-23T21:11:39.893Z,16.68
2019-05-23T21:16:47.565Z,16.76
2019-05-23T21:21:55.372Z,17.37
2019-05-23T21:27:03.515Z,17.04
2019-05-23T21:32:11.286Z,17.13
2019-05-23T21:37:18.789Z,17.07
2019-05-23T21:42:26.495Z,16.74
2019-05-23T21:47:34.357Z,17.56
2019-05-23T21:52:42.066Z,17.47
2019-05-23T21:57:50.811Z,17.38
2019-05-23T22:02:58.550Z,18.25
2019-05-23T22:08:06.347Z,18.45
2019-05-23T22:13:14.168Z,17.95
2019-05-23T22:18:21.985Z,18.20
2019-05-23T22:23:29.664Z,18.51
2019-05-23T22:28:37.810Z,19.07
2019-05-23T22:33:45.507Z,18.93
2019-05-23T22:38:53.211Z,19.23
2019-05-23T22:44:00.874Z,19.80
2019-05-23T22:49:08.664Z,19.24
2019-05-23T22:54:16.474Z,19.76
2019-05-23T22:59:24.677Z,20.32
2019-05-23T23:04:32.520Z,22.26
2019-05-23T23:09:40.185Z,20.67
2019-05-23T23:14:47.954Z,21.75
2019-05-23T23:19:55.812Z,21.46
2019-05-23T23:25:04.313Z,22.20
2019-05-23T23:30:12.385Z,21.81
2019-05-23T23:35:20.232Z,22.46
2019-05-23T23:40:28.134Z,22.64
2019-05-23T23:45:35.948Z,21.82
2019-05-23T23:50:43.829Z,21.86
2019-05-23T23:55:51.497Z,22.00
